Metar Aviation Weather Data KTRI

72°F Temp
64°F Dewpoint
% Humidity
Temperature
MPH
0 KM/H
KTS
Calm
Due North

Wind Speed
Partly Cloudy
Conditions
Pressure 1016.22 (hPa) - 30.01 (in)
Visibility 10.0 (mi) - 16.1 (km)

Current Conditions
KTRI
Metar :KTRI 180153Z 00000KT 10SM FEW048 SCT060 SCT250 22/18 A3001 RMK AO2 SLP138 T02220178
Fri 17th May 21:53 pm

  Metar Aviation API Data Provided by https://www.checkwx.com/ PHP scripts by weather34.com ©2019